Time;durP1;ratioP1;P1;durP2;ratioP2;P2;SDS_P1;SDS_P2;PMS_P1;PMS_P2;Temp;Humidity;BMP_temperature;BMP_pressure;BME280_temperature;BME280_humidity;BME280_pressure;Samples;Min_cycle;Max_cycle;Signal;HPM_P1;HPM_P2
2023/08/25 00:01:22;;;;;;;5.15;2.30;;;;;;;;;;5084786;28;20399;-70
2023/08/25 00:03:49;;;;;;;10.90;2.40;;;;;;;;;;5082061;28;20380;-69
2023/08/25 00:06:15;;;;;;;3.97;2.42;;;;;;;;;;5084718;28;20536;-70
2023/08/25 00:08:41;;;;;;;4.18;2.72;;;;;;;;;;5076696;28;20399;-70
2023/08/25 00:11:07;;;;;;;5.00;2.20;;;;;;;;;;5080981;28;20404;-70
2023/08/25 00:13:35;;;;;;;3.47;2.25;;;;;;;;;;5070052;28;20032;-70
2023/08/25 00:16:02;;;;;;;4.65;2.25;;;;;;;;;;5083298;28;20032;-71
2023/08/25 00:18:29;;;;;;;4.88;2.42;;;;;;;;;;5080567;28;20040;-70
2023/08/25 00:20:55;;;;;;;4.35;2.28;;;;;;;;;;5076398;28;20301;-70
2023/08/25 00:23:22;;;;;;;3.55;2.50;;;;;;;;;;5083431;28;20044;-70
2023/08/25 00:25:48;;;;;;;5.18;2.20;;;;;;;;;;5083157;28;20024;-70
2023/08/25 00:28:14;;;;;;;6.22;1.90;;;;;;;;;;5085884;28;20026;-70
2023/08/25 00:30:40;;;;;;;5.85;2.15;;;;;;;;;;5080401;28;20493;-70
2023/08/25 00:33:06;;;;;;;2.97;2.00;;;;;;;;;;5098302;27;20407;-71
2023/08/25 00:35:32;;;;;;;5.63;2.15;;;;;;;;;;5073983;28;20041;-71
2023/08/25 00:37:59;;;;;;;3.97;2.30;;;;;;;;;;5063906;28;20044;-70
2023/08/25 00:40:25;;;;;;;3.25;2.13;;;;;;;;;;5059124;28;20108;-70
2023/08/25 00:42:51;;;;;;;2.58;1.80;;;;;;;;;;5062719;28;20028;-71
2023/08/25 00:45:17;;;;;;;5.95;2.20;;;;;;;;;;5062345;28;20056;-70
2023/08/25 00:47:44;;;;;;;4.18;2.15;;;;;;;;;;5060430;28;20028;-69
2023/08/25 00:50:11;;;;;;;6.18;2.45;;;;;;;;;;5065316;28;20037;-70
2023/08/25 00:52:38;;;;;;;3.35;2.05;;;;;;;;;;5057149;28;20024;-70
2023/08/25 00:55:05;;;;;;;4.38;2.53;;;;;;;;;;5061382;28;20107;-70
2023/08/25 00:57:31;;;;;;;8.27;2.95;;;;;;;;;;5046708;28;20048;-69
2023/08/25 00:59:58;;;;;;;4.20;2.40;;;;;;;;;;5064406;28;20393;-69
2023/08/25 01:02:25;;;;;;;5.97;2.47;;;;;;;;;;5044029;28;20040;-69
2023/08/25 01:04:51;;;;;;;4.75;2.65;;;;;;;;;;5058718;28;20353;-69
2023/08/25 01:07:17;;;;;;;4.70;2.30;;;;;;;;;;5055412;28;20032;-70
2023/08/25 01:09:43;;;;;;;5.50;2.50;;;;;;;;;;5043328;28;20861;-70
2023/08/25 01:12:28;;;;;;;6.32;3.10;;;;;;;;;;5061098;28;20036;-71
2023/08/25 01:15:16;;;;;;;3.97;3.13;;;;;;;;;;5057513;28;20500;-70
2023/08/25 01:17:48;;;;;;;5.38;2.80;;;;;;;;;;5053751;28;20691;-70
2023/08/25 01:20:15;;;;;;;2.97;2.20;;;;;;;;;;5064057;28;20138;-70
2023/08/25 01:22:50;;;;;;;3.35;2.72;;;;;;;;;;5058397;28;20032;-70
2023/08/25 01:25:16;;;;;;;;;;;;;;;;;;5059418;28;20246;-70
2023/08/25 01:27:43;;;;;;;4.10;2.55;;;;;;;;;;5065994;28;19908;-70
2023/08/25 01:30:09;;;;;;;8.50;2.70;;;;;;;;;;5059223;28;20629;-70
2023/08/25 01:32:38;;;;;;;6.35;2.63;;;;;;;;;;5062586;28;20037;-70
2023/08/25 01:35:05;;;;;;;3.78;2.58;;;;;;;;;;5062402;28;20036;-70
2023/08/25 01:37:33;;;;;;;5.00;2.80;;;;;;;;;;5054641;28;20033;-70
2023/08/25 01:40:06;;;;;;;4.25;2.50;;;;;;;;;;5054409;28;20116;-70
2023/08/25 01:42:33;;;;;;;3.92;2.22;;;;;;;;;;5058707;28;20032;-70
2023/08/25 01:45:00;;;;;;;3.55;3.00;;;;;;;;;;5046246;28;20030;-70
2023/08/25 01:47:28;;;;;;;2.88;2.28;;;;;;;;;;5059723;28;20028;-70
2023/08/25 01:49:58;;;;;;;7.85;2.67;;;;;;;;;;5064043;28;21433;-70
2023/08/25 01:52:25;;;;;;;5.03;2.60;;;;;;;;;;5028978;28;20452;-70
2023/08/25 01:54:51;;;;;;;5.03;2.45;;;;;;;;;;5045383;28;20028;-70
2023/08/25 01:57:17;;;;;;;4.38;2.40;;;;;;;;;;5060443;28;20424;-70
2023/08/25 01:59:43;;;;;;;4.57;2.65;;;;;;;;;;5062402;28;20753;-70
2023/08/25 02:02:09;;;;;;;4.05;2.90;;;;;;;;;;5068370;28;20039;-70
2023/08/25 02:04:36;;;;;;;3.95;2.38;;;;;;;;;;5062039;28;20023;-70
2023/08/25 02:07:02;;;;;;;3.00;2.20;;;;;;;;;;5061612;28;20459;-70
2023/08/25 02:09:28;;;;;;;5.63;2.85;;;;;;;;;;5064716;28;20031;-70
2023/08/25 02:11:54;;;;;;;4.03;2.70;;;;;;;;;;5059297;28;20511;-70
2023/08/25 02:14:20;;;;;;;4.65;2.92;;;;;;;;;;5059098;28;20115;-70
2023/08/25 02:16:47;;;;;;;4.45;3.10;;;;;;;;;;5061065;28;20032;-72
2023/08/25 02:19:13;;;;;;;4.75;2.60;;;;;;;;;;5062727;28;20415;-70
2023/08/25 02:21:39;;;;;;;5.32;2.72;;;;;;;;;;5060003;28;20491;-70
2023/08/25 02:24:05;;;;;;;9.52;4.03;;;;;;;;;;5062395;28;20046;-70
2023/08/25 02:26:31;;;;;;;5.57;2.83;;;;;;;;;;5062904;28;20047;-70
2023/08/25 02:28:57;;;;;;;5.90;3.13;;;;;;;;;;5054431;28;20665;-70
2023/08/25 02:31:23;;;;;;;7.78;3.10;;;;;;;;;;5058702;28;20063;-70
2023/08/25 02:33:50;;;;;;;5.47;3.33;;;;;;;;;;5061716;28;20037;-70
2023/08/25 02:36:16;;;;;;;5.60;3.63;;;;;;;;;;5060026;28;20044;-70
2023/08/25 02:38:42;;;;;;;5.55;2.83;;;;;;;;;;5062332;28;20080;-70
2023/08/25 02:41:08;;;;;;;5.70;2.92;;;;;;;;;;5042907;28;20068;-70
2023/08/25 02:43:34;;;;;;;4.80;2.88;;;;;;;;;;5058996;28;20024;-70
2023/08/25 02:46:00;;;;;;;4.40;2.85;;;;;;;;;;5060225;28;20035;-70
2023/08/25 02:48:27;;;;;;;5.13;2.95;;;;;;;;;;5064127;28;20345;-70
2023/08/25 02:50:53;;;;;;;4.80;3.13;;;;;;;;;;5037795;28;20609;-70
2023/08/25 02:53:19;;;;;;;3.65;2.58;;;;;;;;;;5060157;28;20107;-72
2023/08/25 02:55:46;;;;;;;8.25;3.47;;;;;;;;;;5059172;28;20553;-70
2023/08/25 02:58:13;;;;;;;6.82;3.17;;;;;;;;;;5057162;28;20028;-69
2023/08/25 03:00:39;;;;;;;6.25;2.97;;;;;;;;;;5058692;28;20083;-70
2023/08/25 03:03:05;;;;;;;5.65;3.28;;;;;;;;;;5048016;28;20033;-70
2023/08/25 03:05:31;;;;;;;4.72;3.35;;;;;;;;;;5055282;28;20100;-70
2023/08/25 03:07:57;;;;;;;5.47;3.35;;;;;;;;;;5059521;28;20020;-70
2023/08/25 03:10:23;;;;;;;6.15;3.80;;;;;;;;;;5060604;28;20077;-69
2023/08/25 03:12:50;;;;;;;5.68;3.60;;;;;;;;;;5060939;28;20025;-70
2023/08/25 03:15:16;;;;;;;8.32;3.95;;;;;;;;;;5059929;28;20350;-70
2023/08/25 03:17:42;;;;;;;5.72;4.10;;;;;;;;;;5051744;28;20408;-70
2023/08/25 03:20:09;;;;;;;8.82;3.60;;;;;;;;;;5063338;28;20032;-70
2023/08/25 03:22:35;;;;;;;6.90;3.88;;;;;;;;;;5059018;28;20024;-70
2023/08/25 03:25:01;;;;;;;6.55;3.85;;;;;;;;;;5059970;28;20029;-71
2023/08/25 03:27:28;;;;;;;8.48;3.80;;;;;;;;;;5059393;28;20032;-70
2023/08/25 03:29:54;;;;;;;7.63;3.90;;;;;;;;;;5060279;28;20326;-69
2023/08/25 03:32:20;;;;;;;8.80;3.80;;;;;;;;;;5055964;28;20039;-70
2023/08/25 03:34:46;;;;;;;4.95;3.75;;;;;;;;;;5058498;28;20040;-70
2023/08/25 03:37:12;;;;;;;5.72;3.80;;;;;;;;;;5063412;28;20055;-70
2023/08/25 03:39:39;;;;;;;6.25;3.78;;;;;;;;;;5070480;28;20499;-70
2023/08/25 03:42:05;;;;;;;6.30;4.05;;;;;;;;;;5080357;28;20036;-70
2023/08/25 03:44:31;;;;;;;9.32;4.40;;;;;;;;;;5071166;28;20036;-71
2023/08/25 03:46:59;;;;;;;7.93;4.90;;;;;;;;;;5056331;28;20024;-72
2023/08/25 03:49:28;;;;;;;10.20;4.38;;;;;;;;;;5057034;28;20059;-70
2023/08/25 03:51:54;;;;;;;6.45;4.40;;;;;;;;;;5064082;28;20044;-70
2023/08/25 03:54:21;;;;;;;10.60;5.80;;;;;;;;;;5075851;28;20044;-70
2023/08/25 03:56:47;;;;;;;7.57;5.03;;;;;;;;;;5079145;28;20144;-70
2023/08/25 03:59:13;;;;;;;8.63;4.75;;;;;;;;;;5078567;28;20114;-69
2023/08/25 04:01:39;;;;;;;8.55;4.70;;;;;;;;;;5061866;28;20159;-71
2023/08/25 04:04:06;;;;;;;9.15;5.57;;;;;;;;;;5083185;28;20032;-70
2023/08/25 04:06:32;;;;;;;9.30;6.40;;;;;;;;;;5073543;28;20016;-71
2023/08/25 04:08:58;;;;;;;12.80;6.93;;;;;;;;;;5077828;28;20111;-70
2023/08/25 04:11:24;;;;;;;12.65;6.15;;;;;;;;;;5074244;28;20465;-70
2023/08/25 04:13:51;;;;;;;14.07;6.78;;;;;;;;;;5071283;28;20035;-70
2023/08/25 04:16:17;;;;;;;13.00;6.28;;;;;;;;;;5080657;28;20384;-71
2023/08/25 04:18:43;;;;;;;12.55;6.55;;;;;;;;;;5070534;28;20457;-71
2023/08/25 04:21:09;;;;;;;11.77;5.88;;;;;;;;;;5072797;28;20480;-70
2023/08/25 04:23:36;;;;;;;8.80;5.25;;;;;;;;;;5080707;28;20099;-73
2023/08/25 04:26:02;;;;;;;11.38;5.53;;;;;;;;;;5082671;28;20406;-71
2023/08/25 04:28:29;;;;;;;8.25;5.03;;;;;;;;;;5066297;28;20472;-71
2023/08/25 04:30:55;;;;;;;9.50;5.18;;;;;;;;;;5082089;28;20036;-71
2023/08/25 04:33:21;;;;;;;9.02;5.35;;;;;;;;;;5079307;28;20024;-71
2023/08/25 04:35:47;;;;;;;7.90;5.65;;;;;;;;;;5071163;28;20531;-71
2023/08/25 04:38:14;;;;;;;8.75;5.03;;;;;;;;;;5089417;28;20368;-71
2023/08/25 04:40:40;;;;;;;7.18;4.65;;;;;;;;;;5080271;28;20111;-70
2023/08/25 04:43:06;;;;;;;8.57;4.30;;;;;;;;;;5084107;28;20020;-70
2023/08/25 04:45:32;;;;;;;7.35;3.85;;;;;;;;;;5073161;28;20099;-70
2023/08/25 04:47:58;;;;;;;5.40;3.80;;;;;;;;;;5082840;28;20128;-71
2023/08/25 04:50:25;;;;;;;9.95;3.28;;;;;;;;;;5074914;28;20020;-71
2023/08/25 04:52:51;;;;;;;6.53;3.08;;;;;;;;;;5074653;28;20039;-70
2023/08/25 04:55:17;;;;;;;7.68;3.33;;;;;;;;;;5063635;28;20102;-71
2023/08/25 04:57:43;;;;;;;3.28;2.70;;;;;;;;;;5076055;28;20031;-70
2023/08/25 05:00:10;;;;;;;6.72;3.10;;;;;;;;;;5081977;28;20030;-71
2023/08/25 05:02:36;;;;;;;5.20;2.90;;;;;;;;;;5082033;28;20022;-71
2023/08/25 05:05:05;;;;;;;5.20;2.88;;;;;;;;;;5077239;28;20032;-70
2023/08/25 05:07:31;;;;;;;5.82;2.80;;;;;;;;;;5079106;28;20028;-71
2023/08/25 05:09:57;;;;;;;4.28;2.90;;;;;;;;;;5057025;28;20027;-70
2023/08/25 05:12:23;;;;;;;3.35;2.40;;;;;;;;;;5080833;28;20514;-70
2023/08/25 05:14:49;;;;;;;4.15;2.20;;;;;;;;;;5067626;28;20082;-70
2023/08/25 05:17:15;;;;;;;4.85;2.60;;;;;;;;;;5071564;28;20404;-70
2023/08/25 05:19:41;;;;;;;9.55;2.78;;;;;;;;;;5073070;28;20069;-71
2023/08/25 05:22:08;;;;;;;3.22;2.78;;;;;;;;;;5064131;28;20028;-70
2023/08/25 05:24:34;;;;;;;4.00;3.60;;;;;;;;;;5062731;28;20031;-70
2023/08/25 05:27:00;;;;;;;3.65;2.20;;;;;;;;;;5084444;28;20032;-70
2023/08/25 05:29:27;;;;;;;3.10;2.28;;;;;;;;;;5072987;28;20031;-71
2023/08/25 05:31:53;;;;;;;7.38;2.60;;;;;;;;;;5072786;28;20026;-70
2023/08/25 05:34:20;;;;;;;4.15;2.47;;;;;;;;;;5080008;28;20120;-70
2023/08/25 05:36:46;;;;;;;4.03;2.65;;;;;;;;;;5078777;28;20044;-69
2023/08/25 05:39:12;;;;;;;4.38;2.42;;;;;;;;;;5053416;28;20039;-70
2023/08/25 05:41:39;;;;;;;5.03;2.30;;;;;;;;;;5077714;28;20050;-70
2023/08/25 05:44:05;;;;;;;2.35;2.05;;;;;;;;;;5080882;28;20024;-70
2023/08/25 05:46:32;;;;;;;3.53;2.30;;;;;;;;;;5053342;28;20553;-70
2023/08/25 05:48:58;;;;;;;4.82;2.53;;;;;;;;;;5082541;28;20347;-70
2023/08/25 05:51:30;;;;;;;2.78;2.30;;;;;;;;;;5074986;28;20471;-70
2023/08/25 05:53:56;;;;;;;4.65;2.10;;;;;;;;;;5080604;28;20477;-70
2023/08/25 05:56:22;;;;;;;3.58;2.00;;;;;;;;;;5060700;28;20028;-70
2023/08/25 05:58:48;;;;;;;4.68;2.20;;;;;;;;;;5078165;28;20515;-70
2023/08/25 06:01:15;;;;;;;4.93;2.55;;;;;;;;;;5075556;28;20403;-70
2023/08/25 06:03:41;;;;;;;4.05;2.30;;;;;;;;;;5067786;28;20523;-70
2023/08/25 06:06:07;;;;;;;6.68;2.10;;;;;;;;;;5076694;28;20054;-70
2023/08/25 06:08:34;;;;;;;2.80;2.00;;;;;;;;;;5080992;28;20032;-71
2023/08/25 06:11:00;;;;;;;3.78;2.08;;;;;;;;;;5077984;28;20039;-71
2023/08/25 06:13:26;;;;;;;4.78;2.42;;;;;;;;;;5048968;28;20472;-70
2023/08/25 06:15:53;;;;;;;2.60;2.40;;;;;;;;;;5083098;28;20379;-71
2023/08/25 06:18:19;;;;;;;3.67;2.50;;;;;;;;;;5079817;28;20039;-70
2023/08/25 06:20:45;;;;;;;3.17;2.53;;;;;;;;;;5075022;28;20193;-71
2023/08/25 06:23:13;;;;;;;2.70;2.10;;;;;;;;;;5082108;28;20464;-71
2023/08/25 06:25:39;;;;;;;5.47;2.15;;;;;;;;;;5073090;28;20035;-71
2023/08/25 06:28:05;;;;;;;4.55;2.13;;;;;;;;;;5071662;28;21029;-71
2023/08/25 06:30:35;;;;;;;5.13;2.30;;;;;;;;;;5071138;28;20028;-70
2023/08/25 06:33:02;;;;;;;2.50;2.00;;;;;;;;;;5062838;28;20097;-70
2023/08/25 06:35:29;;;;;;;4.30;2.25;;;;;;;;;;5074142;28;20450;-71
2023/08/25 06:37:55;;;;;;;5.88;2.40;;;;;;;;;;5071514;28;20027;-71
2023/08/25 06:40:21;;;;;;;3.45;2.13;;;;;;;;;;5055769;28;20400;-70
2023/08/25 06:42:47;;;;;;;2.60;2.10;;;;;;;;;;5075507;28;20066;-70
2023/08/25 06:45:14;;;;;;;3.58;2.55;;;;;;;;;;5068646;28;20028;-70
2023/08/25 06:47:44;;;;;;;3.63;2.38;;;;;;;;;;5073985;28;20113;-70
2023/08/25 06:50:10;;;;;;;6.55;2.50;;;;;;;;;;5068237;28;20515;-70
2023/08/25 06:52:37;;;;;;;5.82;2.20;;;;;;;;;;5078061;28;20032;-70
2023/08/25 06:55:04;;;;;;;3.22;2.78;;;;;;;;;;5070684;28;20396;-70
2023/08/25 06:57:31;;;;;;;3.83;2.75;;;;;;;;;;5072656;28;20016;-70
2023/08/25 06:59:57;;;;;;;3.05;2.40;;;;;;;;;;5074028;28;20032;-70
2023/08/25 07:02:23;;;;;;;2.50;2.15;;;;;;;;;;5071296;28;20040;-70
2023/08/25 07:04:49;;;;;;;3.72;2.20;;;;;;;;;;5068044;28;20032;-70
2023/08/25 07:07:24;;;;;;;8.77;3.45;;;;;;;;;;5080751;28;20032;-70
2023/08/25 07:09:50;;;;;;;2.27;2.03;;;;;;;;;;5088588;27;20472;-69
2023/08/25 07:12:16;;;;;;;5.63;2.28;;;;;;;;;;5081037;28;20589;-70
2023/08/25 07:14:43;;;;;;;4.78;2.50;;;;;;;;;;5067368;28;20044;-70
2023/08/25 07:17:09;;;;;;;3.45;2.30;;;;;;;;;;5081281;28;20032;-69
2023/08/25 07:19:36;;;;;;;3.60;2.20;;;;;;;;;;5074724;28;20032;-70
2023/08/25 07:22:02;;;;;;;5.60;2.72;;;;;;;;;;5062563;28;20024;-71
2023/08/25 07:24:28;;;;;;;5.88;2.40;;;;;;;;;;5071081;28;20056;-70
2023/08/25 07:26:55;;;;;;;4.25;2.22;;;;;;;;;;5070534;28;20028;-70
2023/08/25 07:29:21;;;;;;;3.42;2.00;;;;;;;;;;5066937;28;20103;-69
2023/08/25 07:31:47;;;;;;;3.58;2.10;;;;;;;;;;5056247;28;20036;-69
2023/08/25 07:34:14;;;;;;;3.38;2.60;;;;;;;;;;5071515;28;20035;-70
2023/08/25 07:36:40;;;;;;;3.00;2.30;;;;;;;;;;5059464;28;20047;-70
2023/08/25 07:39:06;;;;;;;5.80;2.17;;;;;;;;;;5069943;28;20054;-70
2023/08/25 07:41:32;;;;;;;3.30;2.72;;;;;;;;;;5075820;28;20028;-70
2023/08/25 07:43:58;;;;;;;3.20;2.53;;;;;;;;;;5057341;28;21552;-70
2023/08/25 07:46:24;;;;;;;7.65;2.47;;;;;;;;;;5064976;28;20468;-69
2023/08/25 07:48:51;;;;;;;3.35;2.30;;;;;;;;;;5069157;28;20020;-70
2023/08/25 07:51:17;;;;;;;5.40;2.30;;;;;;;;;;5063702;28;20039;-69
2023/08/25 07:53:43;;;;;;;3.30;2.35;;;;;;;;;;5065059;28;20039;-70
2023/08/25 07:56:09;;;;;;;2.40;2.20;;;;;;;;;;5066728;28;20035;-70
2023/08/25 07:58:35;;;;;;;4.15;2.22;;;;;;;;;;5057342;28;20539;-70
2023/08/25 08:01:02;;;;;;;3.83;2.00;;;;;;;;;;5074427;28;20027;-69
2023/08/25 08:03:29;;;;;;;2.33;1.90;;;;;;;;;;5072541;28;20381;-69
2023/08/25 08:05:55;;;;;;;4.93;2.47;;;;;;;;;;5068985;28;20024;-70
2023/08/25 08:08:21;;;;;;;3.58;2.40;;;;;;;;;;5068015;28;20600;-69
2023/08/25 08:10:48;;;;;;;2.95;2.13;;;;;;;;;;5074632;28;20111;-70
2023/08/25 08:13:14;;;;;;;2.67;1.88;;;;;;;;;;5072393;28;20101;-69
2023/08/25 08:15:40;;;;;;;5.65;2.30;;;;;;;;;;5066036;28;20051;-69
2023/08/25 08:18:06;;;;;;;3.17;2.08;;;;;;;;;;5067255;28;20045;-72
2023/08/25 08:20:36;;;;;;;2.95;2.05;;;;;;;;;;5054679;28;20527;-71
2023/08/25 08:23:02;;;;;;;4.68;2.30;;;;;;;;;;5072906;28;20532;-71
2023/08/25 08:25:30;;;;;;;4.95;2.17;;;;;;;;;;5072358;28;20384;-72
2023/08/25 08:27:56;;;;;;;3.67;1.92;;;;;;;;;;5067842;28;20024;-72
2023/08/25 08:30:22;;;;;;;2.97;2.08;;;;;;;;;;5074198;28;20099;-72
2023/08/25 08:32:49;;;;;;;2.03;1.80;;;;;;;;;;5075015;28;21724;-71
2023/08/25 08:35:17;;;;;;;5.03;1.80;;;;;;;;;;5058488;28;20082;-69
2023/08/25 08:37:43;;;;;;;2.90;1.88;;;;;;;;;;5052409;28;20033;-69
2023/08/25 08:40:10;;;;;;;4.95;2.20;;;;;;;;;;5046882;28;20033;-74
2023/08/25 08:42:37;;;;;;;2.70;1.90;;;;;;;;;;5049046;28;20576;-70
2023/08/25 08:45:10;;;;;;;2.33;1.83;;;;;;;;;;5065294;28;20020;-69
2023/08/25 08:47:37;;;;;;;4.43;2.03;;;;;;;;;;5042847;28;20435;-70
2023/08/25 08:50:06;;;;;;;2.30;2.00;;;;;;;;;;5028543;28;20021;-70
2023/08/25 08:52:33;;;;;;;2.58;2.00;;;;;;;;;;5054259;28;20044;-69
2023/08/25 08:54:59;;;;;;;5.75;2.28;;;;;;;;;;5054391;28;20060;-69
2023/08/25 08:57:26;;;;;;;3.08;2.00;;;;;;;;;;5035463;28;20803;-68
2023/08/25 08:59:52;;;;;;;5.20;2.00;;;;;;;;;;5028041;28;20032;-69
2023/08/25 09:02:22;;;;;;;3.42;1.95;;;;;;;;;;5039538;28;20078;-66
2023/08/25 09:04:51;;;;;;;2.67;2.13;;;;;;;;;;5054211;28;20033;-68
2023/08/25 09:07:19;;;;;;;2.15;1.95;;;;;;;;;;5057745;28;20123;-68
2023/08/25 09:09:46;;;;;;;4.22;2.90;;;;;;;;;;5045623;28;20107;-68
2023/08/25 09:12:13;;;;;;;4.05;2.30;;;;;;;;;;5032777;28;20151;-71
2023/08/25 09:14:39;;;;;;;4.93;2.20;;;;;;;;;;5032445;28;20033;-67
2023/08/25 09:17:08;;;;;;;4.95;2.08;;;;;;;;;;5046943;28;20501;-65
2023/08/25 09:19:35;;;;;;;3.17;1.90;;;;;;;;;;5049104;28;20028;-67
2023/08/25 09:22:02;;;;;;;4.75;1.92;;;;;;;;;;5053597;28;20455;-66
2023/08/25 09:24:30;;;;;;;3.13;1.92;;;;;;;;;;5046755;28;20020;-66
2023/08/25 09:26:58;;;;;;;3.72;1.92;;;;;;;;;;5021657;28;20072;-66
2023/08/25 09:29:25;;;;;;;2.60;1.90;;;;;;;;;;5049055;28;20060;-67
2023/08/25 09:31:51;;;;;;;3.60;1.90;;;;;;;;;;5054781;28;20615;-67
2023/08/25 09:34:19;;;;;;;5.50;2.03;;;;;;;;;;5050081;28;20052;-67
2023/08/25 09:36:53;;;;;;;5.10;2.10;;;;;;;;;;5052774;28;20520;-67
2023/08/25 09:39:20;;;;;;;5.87;2.20;;;;;;;;;;5047701;28;20037;-65
2023/08/25 09:41:46;;;;;;;2.17;1.80;;;;;;;;;;5052310;28;20491;-66
2023/08/25 09:44:13;;;;;;;7.32;2.10;;;;;;;;;;5034664;28;20131;-66
2023/08/25 09:46:39;;;;;;;3.50;1.77;;;;;;;;;;5054218;28;20488;-67
2023/08/25 09:49:09;;;;;;;5.20;2.20;;;;;;;;;;5051034;28;20028;-69
2023/08/25 09:51:35;;;;;;;6.72;2.33;;;;;;;;;;5037327;28;20028;-70
2023/08/25 09:54:09;;;;;;;2.42;1.92;;;;;;;;;;5058777;28;20479;-69
2023/08/25 09:56:36;;;;;;;2.95;1.80;;;;;;;;;;5047593;28;20094;-68
2023/08/25 09:59:06;;;;;;;3.28;2.88;;;;;;;;;;5056756;28;20032;-68
2023/08/25 10:01:32;;;;;;;4.63;1.70;;;;;;;;;;5062054;28;20729;-66
2023/08/25 10:03:59;;;;;;;4.75;1.60;;;;;;;;;;5048316;28;20641;-68
2023/08/25 10:06:25;;;;;;;8.25;2.10;;;;;;;;;;5050881;28;20112;-69
2023/08/25 10:08:51;;;;;;;2.95;1.95;;;;;;;;;;5043579;28;20033;-67
2023/08/25 10:11:19;;;;;;;6.60;2.28;;;;;;;;;;5046919;28;21280;-66
2023/08/25 10:13:45;;;;;;;2.65;1.65;;;;;;;;;;5046710;28;20108;-67
2023/08/25 10:16:12;;;;;;;2.28;1.98;;;;;;;;;;5026376;28;20039;-65
2023/08/25 10:18:40;;;;;;;5.55;2.13;;;;;;;;;;5044466;28;20373;-71
2023/08/25 10:21:10;;;;;;;4.03;2.00;;;;;;;;;;5044917;28;20598;-70
2023/08/25 10:23:36;;;;;;;3.33;2.22;;;;;;;;;;5040254;28;20024;-65
2023/08/25 10:26:03;;;;;;;3.85;2.00;;;;;;;;;;5044523;28;20036;-67
2023/08/25 10:28:30;;;;;;;3.75;2.00;;;;;;;;;;5050567;28;20470;-64
2023/08/25 10:30:56;;;;;;;3.20;1.83;;;;;;;;;;5048052;28;20473;-66
2023/08/25 10:33:22;;;;;;;4.10;2.15;;;;;;;;;;5041682;28;20126;-65
2023/08/25 10:35:49;;;;;;;2.03;1.80;;;;;;;;;;5047362;28;20051;-68
2023/08/25 10:38:18;;;;;;;5.68;2.05;;;;;;;;;;5052145;28;20101;-68
2023/08/25 10:40:49;;;;;;;3.35;1.92;;;;;;;;;;5045524;28;20508;-69
2023/08/25 10:43:15;;;;;;;2.20;1.70;;;;;;;;;;5041007;28;20507;-68
2023/08/25 10:45:42;;;;;;;4.57;2.00;;;;;;;;;;5056898;28;20488;-67
2023/08/25 10:48:10;;;;;;;2.90;1.70;;;;;;;;;;5058985;28;20025;-68
2023/08/25 10:50:40;;;;;;;8.13;2.30;;;;;;;;;;5056965;28;20032;-68
2023/08/25 10:53:26;;;;;;;4.28;2.00;;;;;;;;;;5062506;28;20120;-68
2023/08/25 10:55:52;;;;;;;5.80;2.10;;;;;;;;;;5036380;28;20485;-67
2023/08/25 10:58:18;;;;;;;3.13;2.00;;;;;;;;;;5052872;28;20048;-68
2023/08/25 11:00:45;;;;;;;4.80;1.80;;;;;;;;;;5042420;28;20051;-67
2023/08/25 11:03:13;;;;;;;3.08;2.40;;;;;;;;;;5055323;28;20119;-66
2023/08/25 11:05:40;;;;;;;2.72;1.70;;;;;;;;;;5052382;28;20115;-68
2023/08/25 11:08:27;;;;;;;8.27;2.10;;;;;;;;;;5054598;28;20028;-68
2023/08/25 11:11:13;;;;;;;4.25;1.80;;;;;;;;;;5049182;28;20028;-68
2023/08/25 11:13:40;;;;;;;4.22;1.85;;;;;;;;;;5043160;28;21462;-70
2023/08/25 11:16:10;;;;;;;4.28;1.83;;;;;;;;;;5039851;28;20387;-68
2023/08/25 11:18:37;;;;;;;2.00;1.80;;;;;;;;;;5050083;28;20032;-69
2023/08/25 11:21:04;;;;;;;5.05;1.88;;;;;;;;;;5034251;28;20099;-68
2023/08/25 11:23:40;;;;;;;7.05;1.95;;;;;;;;;;5050402;28;20020;-68
2023/08/25 11:26:07;;;;;;;3.30;1.70;;;;;;;;;;5023790;28;20391;-68
2023/08/25 11:28:34;;;;;;;2.70;1.60;;;;;;;;;;5054751;28;20029;-68
2023/08/25 11:31:00;;;;;;;2.08;1.40;;;;;;;;;;5051854;28;20437;-68
2023/08/25 11:33:26;;;;;;;3.20;2.50;;;;;;;;;;5049335;28;20072;-68
2023/08/25 11:35:53;;;;;;;2.75;1.60;;;;;;;;;;5079826;28;20056;-68
2023/08/25 11:38:20;;;;;;;4.97;1.80;;;;;;;;;;5077669;28;20416;-68
2023/08/25 11:40:47;;;;;;;3.65;1.92;;;;;;;;;;5074943;28;20032;-68
2023/08/25 11:43:13;;;;;;;2.22;1.60;;;;;;;;;;5079153;28;20255;-68
2023/08/25 11:45:39;;;;;;;3.38;1.80;;;;;;;;;;5079982;28;20024;-68
2023/08/25 11:48:06;;;;;;;2.42;1.70;;;;;;;;;;5082744;28;20090;-68
2023/08/25 11:50:34;;;;;;;2.92;1.80;;;;;;;;;;5082608;28;20047;-68
2023/08/25 11:53:01;;;;;;;2.88;1.88;;;;;;;;;;5085169;28;20028;-68
2023/08/25 11:55:33;;;;;;;2.25;1.75;;;;;;;;;;5079803;28;20821;-68
2023/08/25 11:58:06;;;;;;;3.17;2.13;;;;;;;;;;5082592;28;20036;-68
2023/08/25 12:00:36;;;;;;;3.05;1.40;;;;;;;;;;5080260;28;20089;-68
2023/08/25 12:03:05;;;;;;;4.75;1.83;;;;;;;;;;5082386;28;20577;-68
2023/08/25 12:05:31;;;;;;;2.78;1.90;;;;;;;;;;5080130;28;20028;-68
2023/08/25 12:08:01;;;;;;;2.53;1.70;;;;;;;;;;5084852;28;20020;-68
2023/08/25 12:10:27;;;;;;;2.25;1.90;;;;;;;;;;5086142;28;20389;-68
2023/08/25 12:12:54;;;;;;;4.13;1.80;;;;;;;;;;5064898;28;20059;-68
2023/08/25 12:15:20;;;;;;;3.20;2.45;;;;;;;;;;5083183;28;20034;-68
2023/08/25 12:17:50;;;;;;;2.63;1.63;;;;;;;;;;5086219;28;20028;-68
2023/08/25 12:20:17;;;;;;;3.45;1.75;;;;;;;;;;5080903;28;20158;-68
2023/08/25 12:22:54;;;;;;;3.70;1.90;;;;;;;;;;5084111;28;20116;-68
2023/08/25 12:25:21;;;;;;;3.47;1.80;;;;;;;;;;5087518;28;20089;-69
2023/08/25 12:27:49;;;;;;;3.50;1.92;;;;;;;;;;5086608;28;20056;-68
2023/08/25 12:30:15;;;;;;;1.90;1.60;;;;;;;;;;5088157;28;20048;-69
2023/08/25 12:32:41;;;;;;;6.05;1.65;;;;;;;;;;5089108;28;20086;-68
2023/08/25 12:35:08;;;;;;;3.00;1.38;;;;;;;;;;5087815;28;20044;-69
2023/08/25 12:37:34;;;;;;;1.48;1.30;;;;;;;;;;5088377;28;20435;-69
2023/08/25 12:40:00;;;;;;;4.80;1.73;;;;;;;;;;5084863;28;20089;-68
2023/08/25 12:42:27;;;;;;;2.58;1.35;;;;;;;;;;5088351;28;20056;-68
2023/08/25 12:44:53;;;;;;;7.00;1.80;;;;;;;;;;5088911;28;20032;-69
2023/08/25 12:47:19;;;;;;;7.75;1.95;;;;;;;;;;5071947;28;20036;-69
2023/08/25 12:49:45;;;;;;;4.32;1.58;;;;;;;;;;5084422;28;20534;-68
2023/08/25 12:52:14;;;;;;;3.53;1.83;;;;;;;;;;5079182;28;20032;-68
2023/08/25 12:54:40;;;;;;;3.25;1.63;;;;;;;;;;5080337;28;20032;-69
2023/08/25 12:57:06;;;;;;;2.83;1.70;;;;;;;;;;5083567;28;20039;-69
2023/08/25 12:59:32;;;;;;;1.98;1.67;;;;;;;;;;5081224;28;20024;-69
2023/08/25 13:01:59;;;;;;;2.22;1.50;;;;;;;;;;5082900;28;20043;-69
2023/08/25 13:04:26;;;;;;;3.72;2.10;;;;;;;;;;5076994;28;20066;-70
2023/08/25 13:06:53;;;;;;;1.70;1.60;;;;;;;;;;5064391;28;20028;-69
2023/08/25 13:09:20;;;;;;;1.95;1.60;;;;;;;;;;5080378;28;20041;-69
2023/08/25 13:11:47;;;;;;;1.33;1.30;;;;;;;;;;5079168;28;20103;-69
2023/08/25 13:14:14;;;;;;;1.70;1.42;;;;;;;;;;5072101;28;20799;-69
2023/08/25 13:16:40;;;;;;;4.90;1.63;;;;;;;;;;5070760;28;20032;-69
2023/08/25 13:19:06;;;;;;;2.83;1.40;;;;;;;;;;5071994;28;20028;-69
2023/08/25 13:21:32;;;;;;;3.42;1.55;;;;;;;;;;5071566;28;20072;-69
2023/08/25 13:23:59;;;;;;;5.13;1.70;;;;;;;;;;5077077;28;20474;-69
2023/08/25 13:26:25;;;;;;;1.70;1.48;;;;;;;;;;5075745;28;20021;-70
2023/08/25 13:28:51;;;;;;;4.15;1.80;;;;;;;;;;5072047;28;20062;-69
2023/08/25 13:31:17;;;;;;;3.00;1.75;;;;;;;;;;5065462;28;20063;-68
2023/08/25 13:33:44;;;;;;;3.42;1.50;;;;;;;;;;5065812;28;20123;-70
2023/08/25 13:36:10;;;;;;;2.33;1.35;;;;;;;;;;5061343;28;20512;-68
2023/08/25 13:38:36;;;;;;;2.38;1.65;;;;;;;;;;5080976;28;20441;-68
2023/08/25 13:41:03;;;;;;;2.05;1.80;;;;;;;;;;5072382;28;20499;-68
2023/08/25 13:43:29;;;;;;;3.03;1.75;;;;;;;;;;5084342;28;20114;-68
2023/08/25 13:45:55;;;;;;;3.95;1.90;;;;;;;;;;5073197;28;20487;-68
2023/08/25 13:48:22;;;;;;;1.55;1.30;;;;;;;;;;5080267;28;20031;-69
2023/08/25 13:50:49;;;;;;;1.83;1.73;;;;;;;;;;5080040;28;20016;-69
2023/08/25 13:53:15;;;;;;;3.67;1.88;;;;;;;;;;5076200;28;20024;-69
2023/08/25 13:55:42;;;;;;;2.53;1.52;;;;;;;;;;5062792;28;20427;-69
2023/08/25 13:58:08;;;;;;;1.60;1.50;;;;;;;;;;5073571;28;20129;-69
2023/08/25 14:00:34;;;;;;;1.75;1.60;;;;;;;;;;5076409;28;20028;-69
2023/08/25 14:03:01;;;;;;;2.50;1.65;;;;;;;;;;5071486;28;20024;-70
2023/08/25 14:05:27;;;;;;;2.97;2.22;;;;;;;;;;5073097;28;20028;-69
2023/08/25 14:07:53;;;;;;;2.33;1.45;;;;;;;;;;5079244;28;21926;-70
2023/08/25 14:10:20;;;;;;;1.52;1.42;;;;;;;;;;5075127;28;20490;-70
2023/08/25 14:12:46;;;;;;;1.85;1.40;;;;;;;;;;5071638;28;20044;-70
2023/08/25 14:15:12;;;;;;;2.80;1.52;;;;;;;;;;5053710;28;20119;-71
2023/08/25 14:17:38;;;;;;;3.50;1.50;;;;;;;;;;5069536;28;20055;-70
2023/08/25 14:20:06;;;;;;;4.03;1.60;;;;;;;;;;5071245;28;20036;-70
2023/08/25 14:22:33;;;;;;;2.90;1.40;;;;;;;;;;5076956;28;20144;-70
2023/08/25 14:24:59;;;;;;;1.40;1.27;;;;;;;;;;5079541;28;20298;-70
2023/08/25 14:27:26;;;;;;;2.47;1.25;;;;;;;;;;5071639;28;20017;-69
2023/08/25 14:29:53;;;;;;;3.08;1.30;;;;;;;;;;5047057;28;20070;-69
2023/08/25 14:32:19;;;;;;;1.85;1.48;;;;;;;;;;5062411;28;20025;-69
2023/08/25 14:34:45;;;;;;;2.53;1.30;;;;;;;;;;5054994;28;20392;-69
2023/08/25 14:37:12;;;;;;;2.78;1.60;;;;;;;;;;5078801;28;20036;-69
2023/08/25 14:39:38;;;;;;;1.50;1.40;;;;;;;;;;5065542;28;20081;-69
2023/08/25 14:42:05;;;;;;;3.47;1.65;;;;;;;;;;5078964;28;20430;-69